Main page
METAR-TAF:

METAR-TAF

Airports :

Andravida, Greece

latitude: 37-55N, longitude: 021-17E, elevation: 10 m

Current weather observation

The report was made 39 minutes ago, at 18:20 UTC
Wind 10 kt from the North
Temperature 15°C
Humidity 44%
Pressure 1017 hPa
Visibility 10 km or more
no clouds below 1500 m and no cumulonimbus

METAR: LGAD 231820Z 01010KT CAVOK 15/03 Q1017

Time: 20:59 (18:59 UTC)

Forecast

The report was made 1 hour and 59 minutes ago, at 17:00 UTC
Forecast valid from 23 at 18 UTC to 24 at 03 UTC
Wind 10 kt from the North/Northeast
Visibility 10 km or more
Few clouds at a height of 3000 ft

TAF: LGAD 231700Z 2318/2403 03010KT 9999 FEW030

Weather observations and forecasts of more than 4000 airports (METAR and TAF reports).

The available stations are represented by yellow and red dots on the map.

Hover mouse over dot to see the name of the station.

Then click to see weather observations and forecasts.

To change the map : click on the green buttons with a black cross to zoom in, on the green button with a dash to zoom out, or on the green arrows for adjacent maps.


METAR-TAF: